sensor_id;sensor_type;location;lat;lon;timestamp;pressure;altitude;pressure_sealevel;temperature;humidity
21290;BME280;10804;48.988;2.408;2024-02-26T00:01:31;98097.41;;;10.19;71.90
21290;BME280;10804;48.988;2.408;2024-02-26T00:03:59;98105.22;;;10.19;72.11
21290;BME280;10804;48.988;2.408;2024-02-26T00:06:28;98111.16;;;10.21;72.15
21290;BME280;10804;48.988;2.408;2024-02-26T00:08:57;98111.16;;;10.21;72.25
21290;BME280;10804;48.988;2.408;2024-02-26T00:11:24;98119.81;;;10.21;72.22
21290;BME280;10804;48.988;2.408;2024-02-26T00:13:51;98115.63;;;10.19;72.16
21290;BME280;10804;48.988;2.408;2024-02-26T00:16:19;98121.56;;;10.21;72.03
21290;BME280;10804;48.988;2.408;2024-02-26T00:18:46;98124.09;;;10.22;71.89
21290;BME280;10804;48.988;2.408;2024-02-26T00:21:13;98123.22;;;10.22;72.04
21290;BME280;10804;48.988;2.408;2024-02-26T00:23:41;98128.34;;;10.23;72.21
21290;BME280;10804;48.988;2.408;2024-02-26T00:26:10;98132.75;;;10.23;72.03
21290;BME280;10804;48.988;2.408;2024-02-26T00:28:37;98140.56;;;10.23;72.07
21290;BME280;10804;48.988;2.408;2024-02-26T00:31:08;98139.63;;;10.24;72.07
21290;BME280;10804;48.988;2.408;2024-02-26T00:33:38;98140.56;;;10.23;71.94
21290;BME280;10804;48.988;2.408;2024-02-26T00:36:06;98140.56;;;10.23;72.03
21290;BME280;10804;48.988;2.408;2024-02-26T00:38:33;98148.25;;;10.24;72.13
21290;BME280;10804;48.988;2.408;2024-02-26T00:41:03;98147.44;;;10.24;72.05
21290;BME280;10804;48.988;2.408;2024-02-26T00:43:32;98142.22;;;10.24;71.98
21290;BME280;10804;48.988;2.408;2024-02-26T00:45:59;98155.97;;;10.26;71.92
21290;BME280;10804;48.988;2.408;2024-02-26T00:48:27;98150.75;;;10.26;72.00
21290;BME280;10804;48.988;2.408;2024-02-26T00:50:54;98148.97;;;10.26;71.87
21290;BME280;10804;48.988;2.408;2024-02-26T00:53:21;98148.16;;;10.26;72.27
21290;BME280;10804;48.988;2.408;2024-02-26T00:55:51;98141.16;;;10.26;71.93
21290;BME280;10804;48.988;2.408;2024-02-26T00:58:18;98151.56;;;10.26;71.89
21290;BME280;10804;48.988;2.408;2024-02-26T01:00:47;98145.56;;;10.26;72.03
21290;BME280;10804;48.988;2.408;2024-02-26T01:03:15;98161.09;;;10.27;71.98
21290;BME280;10804;48.988;2.408;2024-02-26T01:05:42;98164.59;;;10.26;71.99
21290;BME280;10804;48.988;2.408;2024-02-26T01:08:09;98156.78;;;10.26;72.19
21290;BME280;10804;48.988;2.408;2024-02-26T01:10:37;98161.09;;;10.27;71.99
21290;BME280;10804;48.988;2.408;2024-02-26T01:13:04;98160.25;;;10.27;72.02
21290;BME280;10804;48.988;2.408;2024-02-26T01:15:33;98160.25;;;10.27;72.03
21290;BME280;10804;48.988;2.408;2024-02-26T01:18:02;98167.13;;;10.28;72.04
21290;BME280;10804;48.988;2.408;2024-02-26T01:20:29;98159.31;;;10.28;71.96
21290;BME280;10804;48.988;2.408;2024-02-26T01:22:57;98164.50;;;10.28;72.16
21290;BME280;10804;48.988;2.408;2024-02-26T01:25:24;98161.91;;;10.28;71.87
21290;BME280;10804;48.988;2.408;2024-02-26T01:27:51;98167.13;;;10.28;71.91
21290;BME280;10804;48.988;2.408;2024-02-26T01:30:19;98174.00;;;10.29;71.84
21290;BME280;10804;48.988;2.408;2024-02-26T01:32:46;98172.31;;;10.28;71.91
21290;BME280;10804;48.988;2.408;2024-02-26T01:35:15;98172.31;;;10.28;71.91
21290;BME280;10804;48.988;2.408;2024-02-26T01:37:43;98168.06;;;10.27;71.88
21290;BME280;10804;48.988;2.408;2024-02-26T01:40:11;98169.72;;;10.28;71.83
21290;BME280;10804;48.988;2.408;2024-02-26T01:42:44;98176.59;;;10.29;71.94
21290;BME280;10804;48.988;2.408;2024-02-26T01:45:14;98180.88;;;10.30;71.94
21290;BME280;10804;48.988;2.408;2024-02-26T01:47:48;98183.47;;;10.30;72.01
21290;BME280;10804;48.988;2.408;2024-02-26T01:50:18;98174.94;;;10.28;71.96
21290;BME280;10804;48.988;2.408;2024-02-26T01:52:46;98181.72;;;10.30;71.78
21290;BME280;10804;48.988;2.408;2024-02-26T01:55:14;98176.59;;;10.29;71.91
21290;BME280;10804;48.988;2.408;2024-02-26T01:57:43;98181.81;;;10.29;71.91
21290;BME280;10804;48.988;2.408;2024-02-26T02:00:12;98179.09;;;10.30;71.97
21290;BME280;10804;48.988;2.408;2024-02-26T02:02:41;98179.03;;;10.32;71.94
21290;BME280;10804;48.988;2.408;2024-02-26T02:05:11;98181.63;;;10.32;71.84
21290;BME280;10804;48.988;2.408;2024-02-26T02:07:40;98179.97;;;10.31;71.72
21290;BME280;10804;48.988;2.408;2024-02-26T02:10:08;98186.84;;;10.32;72.13
21290;BME280;10804;48.988;2.408;2024-02-26T02:12:35;98180.78;;;10.31;71.93
21290;BME280;10804;48.988;2.408;2024-02-26T02:15:06;98187.56;;;10.34;71.76
21290;BME280;10804;48.988;2.408;2024-02-26T02:17:34;98193.72;;;10.33;71.80
21290;BME280;10804;48.988;2.408;2024-02-26T02:20:01;98198.91;;;10.33;71.76
21290;BME280;10804;48.988;2.408;2024-02-26T02:22:30;98191.91;;;10.33;71.77
21290;BME280;10804;48.988;2.408;2024-02-26T02:24:59;98195.38;;;10.34;71.62
21290;BME280;10804;48.988;2.408;2024-02-26T02:27:27;98197.03;;;10.35;71.94
21290;BME280;10804;48.988;2.408;2024-02-26T02:29:55;98197.03;;;10.35;71.97
21290;BME280;10804;48.988;2.408;2024-02-26T02:32:23;98202.25;;;10.35;71.87
21290;BME280;10804;48.988;2.408;2024-02-26T02:34:52;98199.56;;;10.36;71.98
21290;BME280;10804;48.988;2.408;2024-02-26T02:37:19;98191.84;;;10.35;71.81
21290;BME280;10804;48.988;2.408;2024-02-26T02:39:48;98200.38;;;10.37;71.67
21290;BME280;10804;48.988;2.408;2024-02-26T02:42:15;98202.03;;;10.38;71.66
21290;BME280;10804;48.988;2.408;2024-02-26T02:44:43;98204.66;;;10.38;71.70
21290;BME280;10804;48.988;2.408;2024-02-26T02:47:10;98206.34;;;10.39;71.92
21290;BME280;10804;48.988;2.408;2024-02-26T02:49:38;98212.38;;;10.39;71.89
21290;BME280;10804;48.988;2.408;2024-02-26T02:52:05;98216.75;;;10.39;71.90
21290;BME280;10804;48.988;2.408;2024-02-26T02:54:33;98223.63;;;10.40;71.90
21290;BME280;10804;48.988;2.408;2024-02-26T02:57:03;98221.97;;;10.39;71.76
21290;BME280;10804;48.988;2.408;2024-02-26T02:59:30;98221.97;;;10.39;71.64
21290;BME280;10804;48.988;2.408;2024-02-26T03:01:58;98222.69;;;10.41;71.83
21290;BME280;10804;48.988;2.408;2024-02-26T03:04:25;98221.03;;;10.40;71.64
21290;BME280;10804;48.988;2.408;2024-02-26T03:06:52;98228.72;;;10.41;71.75
21290;BME280;10804;48.988;2.408;2024-02-26T03:09:20;98226.13;;;10.41;71.55
21290;BME280;10804;48.988;2.408;2024-02-26T03:11:47;98222.69;;;10.41;71.86
21290;BME280;10804;48.988;2.408;2024-02-26T03:14:16;98230.44;;;10.42;71.58
21290;BME280;10804;48.988;2.408;2024-02-26T03:16:43;98239.06;;;10.43;71.54
21290;BME280;10804;48.988;2.408;2024-02-26T03:19:10;98239.06;;;10.43;71.51
21290;BME280;10804;48.988;2.408;2024-02-26T03:21:38;98238.97;;;10.44;71.75
21290;BME280;10804;48.988;2.408;2024-02-26T03:24:06;98248.53;;;10.44;71.80
21290;BME280;10804;48.988;2.408;2024-02-26T03:26:35;98236.44;;;10.43;71.80
21290;BME280;10804;48.988;2.408;2024-02-26T03:29:02;98243.31;;;10.44;71.61
21290;BME280;10804;48.988;2.408;2024-02-26T03:31:31;98254.59;;;10.44;71.57
21290;BME280;10804;48.988;2.408;2024-02-26T03:33:58;98254.69;;;10.43;71.61
21290;BME280;10804;48.988;2.408;2024-02-26T03:36:26;98264.16;;;10.44;71.86
21290;BME280;10804;48.988;2.408;2024-02-26T03:38:53;98258.97;;;10.44;71.87
21290;BME280;10804;48.988;2.408;2024-02-26T03:41:21;98261.47;;;10.45;71.75
21290;BME280;10804;48.988;2.408;2024-02-26T03:43:48;98261.69;;;10.42;71.55
21290;BME280;10804;48.988;2.408;2024-02-26T03:46:16;98265.09;;;10.43;71.54
21290;BME280;10804;48.988;2.408;2024-02-26T03:48:45;98261.56;;;10.44;71.69
21290;BME280;10804;48.988;2.408;2024-02-26T03:51:12;98268.44;;;10.45;71.68
21290;BME280;10804;48.988;2.408;2024-02-26T03:53:40;98276.16;;;10.46;71.73
21290;BME280;10804;48.988;2.408;2024-02-26T03:56:07;98274.50;;;10.45;71.76
21290;BME280;10804;48.988;2.408;2024-02-26T03:58:35;98273.78;;;10.43;71.68
21290;BME280;10804;48.988;2.408;2024-02-26T04:01:02;98283.16;;;10.46;71.57
21290;BME280;10804;48.988;2.408;2024-02-26T04:03:29;98277.09;;;10.45;71.58
21290;BME280;10804;48.988;2.408;2024-02-26T04:05:58;98280.66;;;10.44;71.65
21290;BME280;10804;48.988;2.408;2024-02-26T04:08:25;98288.38;;;10.46;71.76
21290;BME280;10804;48.988;2.408;2024-02-26T04:10:53;98286.69;;;10.45;71.57
21290;BME280;10804;48.988;2.408;2024-02-26T04:13:20;98289.28;;;10.45;71.69
21290;BME280;10804;48.988;2.408;2024-02-26T04:15:47;98292.81;;;10.44;71.63
21290;BME280;10804;48.988;2.408;2024-02-26T04:18:15;98308.38;;;10.45;71.63
21290;BME280;10804;48.988;2.408;2024-02-26T04:20:42;98312.72;;;10.45;71.83
21290;BME280;10804;48.988;2.408;2024-02-26T04:23:11;98312.72;;;10.45;71.63
21290;BME280;10804;48.988;2.408;2024-02-26T04:25:38;98317.13;;;10.44;71.53
21290;BME280;10804;48.988;2.408;2024-02-26T04:28:05;98318.06;;;10.43;71.63
21290;BME280;10804;48.988;2.408;2024-02-26T04:30:33;98318.88;;;10.44;71.61
21290;BME280;10804;48.988;2.408;2024-02-26T04:33:00;98329.22;;;10.45;71.59
21290;BME280;10804;48.988;2.408;2024-02-26T04:35:27;98324.94;;;10.44;71.53
21290;BME280;10804;48.988;2.408;2024-02-26T04:37:55;98317.13;;;10.44;71.53
21290;BME280;10804;48.988;2.408;2024-02-26T04:40:24;98329.28;;;10.44;71.68
21290;BME280;10804;48.988;2.408;2024-02-26T04:42:52;98330.16;;;10.44;71.45
21290;BME280;10804;48.988;2.408;2024-02-26T04:45:19;98330.97;;;10.45;71.65
21290;BME280;10804;48.988;2.408;2024-02-26T04:47:47;98332.75;;;10.44;71.56
21290;BME280;10804;48.988;2.408;2024-02-26T04:50:14;98344.84;;;10.45;71.67
21290;BME280;10804;48.988;2.408;2024-02-26T04:52:41;98343.91;;;10.46;71.73
21290;BME280;10804;48.988;2.408;2024-02-26T04:55:09;98351.72;;;10.46;71.63
21290;BME280;10804;48.988;2.408;2024-02-26T04:57:37;98349.22;;;10.45;71.66
21290;BME280;10804;48.988;2.408;2024-02-26T05:00:06;98363.16;;;10.44;71.58
21290;BME280;10804;48.988;2.408;2024-02-26T05:02:34;98360.47;;;10.45;71.71
21290;BME280;10804;48.988;2.408;2024-02-26T05:05:04;98359.63;;;10.45;71.66
21290;BME280;10804;48.988;2.408;2024-02-26T05:07:31;98360.47;;;10.45;71.56
21290;BME280;10804;48.988;2.408;2024-02-26T05:09:59;98364.84;;;10.45;71.71
21290;BME280;10804;48.988;2.408;2024-02-26T05:12:26;98369.13;;;10.46;71.67
21290;BME280;10804;48.988;2.408;2024-02-26T05:14:55;98373.50;;;10.45;71.72
21290;BME280;10804;48.988;2.408;2024-02-26T05:17:22;98369.13;;;10.46;71.67
21290;BME280;10804;48.988;2.408;2024-02-26T05:19:49;98377.88;;;10.45;71.66
21290;BME280;10804;48.988;2.408;2024-02-26T05:22:17;98380.47;;;10.45;71.64
21290;BME280;10804;48.988;2.408;2024-02-26T05:24:44;98382.16;;;10.46;71.83
21290;BME280;10804;48.988;2.408;2024-02-26T05:27:11;98389.13;;;10.45;71.85
21290;BME280;10804;48.988;2.408;2024-02-26T05:29:39;98388.19;;;10.46;71.53
21290;BME280;10804;48.988;2.408;2024-02-26T05:32:07;98387.38;;;10.46;71.49
21290;BME280;10804;48.988;2.408;2024-02-26T05:34:35;98396.88;;;10.47;71.68
21290;BME280;10804;48.988;2.408;2024-02-26T05:37:02;98403.75;;;10.48;71.55
21290;BME280;10804;48.988;2.408;2024-02-26T05:39:30;98402.06;;;10.47;71.70
21290;BME280;10804;48.988;2.408;2024-02-26T05:41:58;98405.63;;;10.46;71.64
21290;BME280;10804;48.988;2.408;2024-02-26T05:44:26;98410.72;;;10.47;71.69
21290;BME280;10804;48.988;2.408;2024-02-26T05:46:54;98411.56;;;10.48;71.54
21290;BME280;10804;48.988;2.408;2024-02-26T05:49:23;98415.09;;;10.47;71.52
21290;BME280;10804;48.988;2.408;2024-02-26T05:51:50;98415.09;;;10.47;71.56
21290;BME280;10804;48.988;2.408;2024-02-26T05:54:18;98419.47;;;10.46;71.64
21290;BME280;10804;48.988;2.408;2024-02-26T05:56:45;98425.53;;;10.47;71.76
21290;BME280;10804;48.988;2.408;2024-02-26T05:59:12;98432.41;;;10.48;71.58
21290;BME280;10804;48.988;2.408;2024-02-26T06:01:41;98427.28;;;10.46;71.70
21290;BME280;10804;48.988;2.408;2024-02-26T06:04:08;98438.56;;;10.47;71.52
21290;BME280;10804;48.988;2.408;2024-02-26T06:06:39;98438.44;;;10.48;71.57
21290;BME280;10804;48.988;2.408;2024-02-26T06:09:07;98454.06;;;10.48;71.73
21290;BME280;10804;48.988;2.408;2024-02-26T06:11:34;98442.81;;;10.48;71.70
21290;BME280;10804;48.988;2.408;2024-02-26T06:14:02;98454.06;;;10.48;71.63
21290;BME280;10804;48.988;2.408;2024-02-26T06:16:29;98459.41;;;10.47;71.74
21290;BME280;10804;48.988;2.408;2024-02-26T06:18:56;98464.50;;;10.48;71.60
21290;BME280;10804;48.988;2.408;2024-02-26T06:21:24;98464.50;;;10.48;71.62
21290;BME280;10804;48.988;2.408;2024-02-26T06:23:52;98471.38;;;10.49;71.71
21290;BME280;10804;48.988;2.408;2024-02-26T06:26:20;98469.69;;;10.48;71.51
21290;BME280;10804;48.988;2.408;2024-02-26T06:28:48;98487.00;;;10.49;71.70
21290;BME280;10804;48.988;2.408;2024-02-26T06:31:15;98480.97;;;10.49;71.65
21290;BME280;10804;48.988;2.408;2024-02-26T06:33:43;98491.41;;;10.49;71.66
21290;BME280;10804;48.988;2.408;2024-02-26T06:36:11;98493.06;;;10.50;71.72
21290;BME280;10804;48.988;2.408;2024-02-26T06:38:38;98495.69;;;10.50;71.62
21290;BME280;10804;48.988;2.408;2024-02-26T06:41:07;98489.72;;;10.48;71.73
21290;BME280;10804;48.988;2.408;2024-02-26T06:43:34;98500.88;;;10.50;71.61
21290;BME280;10804;48.988;2.408;2024-02-26T06:46:02;98507.84;;;10.49;71.63
21290;BME280;10804;48.988;2.408;2024-02-26T06:48:29;98507.84;;;10.49;71.68
21290;BME280;10804;48.988;2.408;2024-02-26T06:50:57;98508.69;;;10.50;71.77
21290;BME280;10804;48.988;2.408;2024-02-26T06:53:24;98515.66;;;10.49;71.70
21290;BME280;10804;48.988;2.408;2024-02-26T06:55:51;98513.91;;;10.50;71.66
21290;BME280;10804;48.988;2.408;2024-02-26T06:58:20;98516.53;;;10.50;71.65
21290;BME280;10804;48.988;2.408;2024-02-26T07:00:47;98519.97;;;10.50;71.68
21290;BME280;10804;48.988;2.408;2024-02-26T07:03:15;98518.28;;;10.49;71.73
21290;BME280;10804;48.988;2.408;2024-02-26T07:05:44;98524.34;;;10.50;71.68
21290;BME280;10804;48.988;2.408;2024-02-26T07:08:12;98527.78;;;10.50;71.63
21290;BME280;10804;48.988;2.408;2024-02-26T07:10:39;98542.56;;;10.50;71.50
21290;BME280;10804;48.988;2.408;2024-02-26T07:13:06;98541.84;;;10.48;71.81
21290;BME280;10804;48.988;2.408;2024-02-26T07:15:35;98554.88;;;10.48;71.66
21290;BME280;10804;48.988;2.408;2024-02-26T07:18:03;98557.28;;;10.51;71.60
21290;BME280;10804;48.988;2.408;2024-02-26T07:20:30;98554.75;;;10.49;71.69
21290;BME280;10804;48.988;2.408;2024-02-26T07:22:58;98565.09;;;10.51;71.62
21290;BME280;10804;48.988;2.408;2024-02-26T07:25:25;98571.25;;;10.50;71.65
21290;BME280;10804;48.988;2.408;2024-02-26T07:27:52;98568.63;;;10.50;71.79
21290;BME280;10804;48.988;2.408;2024-02-26T07:30:20;98575.50;;;10.51;71.80
21290;BME280;10804;48.988;2.408;2024-02-26T07:32:48;98578.97;;;10.51;71.70
21290;BME280;10804;48.988;2.408;2024-02-26T07:35:16;98573.75;;;10.51;71.55
21290;BME280;10804;48.988;2.408;2024-02-26T07:37:43;98588.53;;;10.51;71.86
21290;BME280;10804;48.988;2.408;2024-02-26T07:40:11;98595.44;;;10.52;71.64
21290;BME280;10804;48.988;2.408;2024-02-26T07:42:39;98589.41;;;10.51;71.70
21290;BME280;10804;48.988;2.408;2024-02-26T07:45:07;98591.88;;;10.53;71.67
21290;BME280;10804;48.988;2.408;2024-02-26T07:47:34;98593.69;;;10.52;71.65
21290;BME280;10804;48.988;2.408;2024-02-26T07:50:03;98596.28;;;10.52;71.70
21290;BME280;10804;48.988;2.408;2024-02-26T07:52:31;98603.16;;;10.53;71.72
21290;BME280;10804;48.988;2.408;2024-02-26T07:54:58;98608.38;;;10.53;71.71
21290;BME280;10804;48.988;2.408;2024-02-26T07:57:25;98608.28;;;10.55;71.75
21290;BME280;10804;48.988;2.408;2024-02-26T07:59:52;98610.91;;;10.55;71.63
21290;BME280;10804;48.988;2.408;2024-02-26T08:02:20;98615.25;;;10.54;71.57
21290;BME280;10804;48.988;2.408;2024-02-26T08:04:48;98621.31;;;10.55;71.94
21290;BME280;10804;48.988;2.408;2024-02-26T08:07:17;98625.59;;;10.56;71.62
21290;BME280;10804;48.988;2.408;2024-02-26T08:09:44;98627.28;;;10.57;71.60
21290;BME280;10804;48.988;2.408;2024-02-26T08:12:12;98629.88;;;10.57;71.59
21290;BME280;10804;48.988;2.408;2024-02-26T08:14:39;98633.34;;;10.57;71.80
21290;BME280;10804;48.988;2.408;2024-02-26T08:17:07;98636.78;;;10.58;71.75
21290;BME280;10804;48.988;2.408;2024-02-26T08:19:34;98633.22;;;10.59;71.68
21290;BME280;10804;48.988;2.408;2024-02-26T08:22:02;98637.50;;;10.60;71.46
21290;BME280;10804;48.988;2.408;2024-02-26T08:24:31;98647.94;;;10.60;71.63
21290;BME280;10804;48.988;2.408;2024-02-26T08:26:58;98646.19;;;10.60;71.67
21290;BME280;10804;48.988;2.408;2024-02-26T08:29:26;98649.53;;;10.62;71.66
21290;BME280;10804;48.988;2.408;2024-02-26T08:31:53;98651.31;;;10.62;71.37
21290;BME280;10804;48.988;2.408;2024-02-26T08:34:20;98655.59;;;10.63;71.43
21290;BME280;10804;48.988;2.408;2024-02-26T08:36:48;98657.25;;;10.64;71.62
21290;BME280;10804;48.988;2.408;2024-02-26T08:39:16;98659.88;;;10.64;71.59
21290;BME280;10804;48.988;2.408;2024-02-26T08:41:45;98674.56;;;10.65;71.70
21290;BME280;10804;48.988;2.408;2024-02-26T08:44:13;98674.50;;;10.66;71.61
21290;BME280;10804;48.988;2.408;2024-02-26T08:46:40;98675.31;;;10.67;71.66
21290;BME280;10804;48.988;2.408;2024-02-26T08:49:07;98678.78;;;10.67;71.57
21290;BME280;10804;48.988;2.408;2024-02-26T08:51:35;98681.31;;;10.69;71.51
21290;BME280;10804;48.988;2.408;2024-02-26T08:54:02;98689.00;;;10.70;71.56
21290;BME280;10804;48.988;2.408;2024-02-26T08:56:29;98692.47;;;10.71;71.55
21290;BME280;10804;48.988;2.408;2024-02-26T08:58:58;98701.97;;;10.72;71.57
21290;BME280;10804;48.988;2.408;2024-02-26T09:01:30;98707.19;;;10.72;71.40
21290;BME280;10804;48.988;2.408;2024-02-26T09:03:58;98717.41;;;10.75;71.52
21290;BME280;10804;48.988;2.408;2024-02-26T09:06:25;98713.88;;;10.76;71.55
21290;BME280;10804;48.988;2.408;2024-02-26T09:08:53;98717.41;;;10.75;71.48
21290;BME280;10804;48.988;2.408;2024-02-26T09:11:20;98722.47;;;10.78;71.57
21290;BME280;10804;48.988;2.408;2024-02-26T09:13:47;98725.81;;;10.80;71.39
21290;BME280;10804;48.988;2.408;2024-02-26T09:16:16;98723.22;;;10.80;71.30
21290;BME280;10804;48.988;2.408;2024-02-26T09:18:43;98733.56;;;10.81;71.57
21290;BME280;10804;48.988;2.408;2024-02-26T09:21:10;98727.41;;;10.82;71.52
21290;BME280;10804;48.988;2.408;2024-02-26T09:23:38;98742.03;;;10.85;71.52
21290;BME280;10804;48.988;2.408;2024-02-26T09:26:05;98738.50;;;10.86;71.46
21290;BME280;10804;48.988;2.408;2024-02-26T09:28:33;98744.47;;;10.88;71.42
21290;BME280;10804;48.988;2.408;2024-02-26T09:31:03;98740.91;;;10.89;71.60
21290;BME280;10804;48.988;2.408;2024-02-26T09:33:32;98749.47;;;10.91;71.55
21290;BME280;10804;48.988;2.408;2024-02-26T09:35:59;98759.00;;;10.92;71.44
21290;BME280;10804;48.988;2.408;2024-02-26T09:38:27;98758.06;;;10.93;71.34
21290;BME280;10804;48.988;2.408;2024-02-26T09:40:56;98773.53;;;10.96;71.62
21290;BME280;10804;48.988;2.408;2024-02-26T09:43:27;98768.31;;;10.96;71.41
21290;BME280;10804;48.988;2.408;2024-02-26T09:46:00;98771.66;;;10.98;71.45
21290;BME280;10804;48.988;2.408;2024-02-26T09:48:29;98774.19;;;10.99;71.34
21290;BME280;10804;48.988;2.408;2024-02-26T09:50:58;98776.72;;;11.01;71.34
21290;BME280;10804;48.988;2.408;2024-02-26T09:53:28;98782.69;;;11.03;71.31
21290;BME280;10804;48.988;2.408;2024-02-26T09:55:57;98787.69;;;11.06;71.30
21290;BME280;10804;48.988;2.408;2024-02-26T09:58:28;98788.47;;;11.08;71.48
21290;BME280;10804;48.988;2.408;2024-02-26T10:00:57;98793.69;;;11.08;71.25
21290;BME280;10804;48.988;2.408;2024-02-26T10:03:28;98803.94;;;11.11;71.51
21290;BME280;10804;48.988;2.408;2024-02-26T10:05:59;98805.63;;;11.12;71.25
21290;BME280;10804;48.988;2.408;2024-02-26T10:08:29;98810.66;;;11.15;71.27
21290;BME280;10804;48.988;2.408;2024-02-26T10:10:57;98814.03;;;11.17;71.22
21290;BME280;10804;48.988;2.408;2024-02-26T10:13:24;98819.97;;;11.19;71.15
21290;BME280;10804;48.988;2.408;2024-02-26T10:15:52;98823.34;;;11.21;70.81
21290;BME280;10804;48.988;2.408;2024-02-26T10:18:19;98824.09;;;11.23;71.08
21290;BME280;10804;48.988;2.408;2024-02-26T10:21:00;98831.81;;;11.24;71.09
21290;BME280;10804;48.988;2.408;2024-02-26T10:23:27;98836.03;;;11.27;71.00
21290;BME280;10804;48.988;2.408;2024-02-26T10:25:54;98835.09;;;11.28;70.95
21290;BME280;10804;48.988;2.408;2024-02-26T10:28:22;98840.16;;;11.31;70.95
21290;BME280;10804;48.988;2.408;2024-02-26T10:30:51;98845.25;;;11.32;70.87
21290;BME280;10804;48.988;2.408;2024-02-26T10:33:18;98835.69;;;11.33;70.96
21290;BME280;10804;48.988;2.408;2024-02-26T10:35:46;98851.13;;;11.36;70.82
21290;BME280;10804;48.988;2.408;2024-02-26T10:38:15;98846.03;;;11.34;70.93
21290;BME280;10804;48.988;2.408;2024-02-26T10:40:46;98854.53;;;11.38;70.84
21290;BME280;10804;48.988;2.408;2024-02-26T10:43:13;98853.47;;;11.40;70.78
21290;BME280;10804;48.988;2.408;2024-02-26T10:45:43;98856.09;;;11.40;70.86
21290;BME280;10804;48.988;2.408;2024-02-26T10:48:14;98867.28;;;11.42;70.79
21290;BME280;10804;48.988;2.408;2024-02-26T10:50:43;98873.34;;;11.43;70.69
21290;BME280;10804;48.988;2.408;2024-02-26T10:53:16;98872.41;;;11.43;70.66
21290;BME280;10804;48.988;2.408;2024-02-26T10:55:48;98875.69;;;11.47;70.61
21290;BME280;10804;48.988;2.408;2024-02-26T10:58:16;98880.06;;;11.47;70.51
21290;BME280;10804;48.988;2.408;2024-02-26T11:00:45;98888.66;;;11.48;70.61
21290;BME280;10804;48.988;2.408;2024-02-26T11:03:14;98900.75;;;11.49;70.68
21290;BME280;10804;48.988;2.408;2024-02-26T11:05:43;98890.31;;;11.49;70.68
21290;BME280;10804;48.988;2.408;2024-02-26T11:08:11;98913.75;;;11.51;70.69
21290;BME280;10804;48.988;2.408;2024-02-26T11:10:41;98911.03;;;11.52;70.62
21290;BME280;10804;48.988;2.408;2024-02-26T11:13:11;98924.09;;;11.52;70.53
21290;BME280;10804;48.988;2.408;2024-02-26T11:15:39;98929.22;;;11.54;70.57
21290;BME280;10804;48.988;2.408;2024-02-26T11:18:07;98929.22;;;11.54;70.50
21290;BME280;10804;48.988;2.408;2024-02-26T11:20:39;98928.53;;;11.50;70.69
21290;BME280;10804;48.988;2.408;2024-02-26T11:23:07;98934.44;;;11.54;70.37
21290;BME280;10804;48.988;2.408;2024-02-26T11:25:35;98943.13;;;11.54;70.60
21290;BME280;10804;48.988;2.408;2024-02-26T11:28:10;98945.72;;;11.54;70.41
21290;BME280;10804;48.988;2.408;2024-02-26T11:30:41;98946.47;;;11.56;70.62
21290;BME280;10804;48.988;2.408;2024-02-26T11:33:10;98952.63;;;11.55;70.63
21290;BME280;10804;48.988;2.408;2024-02-26T11:35:39;98952.63;;;11.55;70.52
21290;BME280;10804;48.988;2.408;2024-02-26T11:38:17;98961.28;;;11.56;70.61
21290;BME280;10804;48.988;2.408;2024-02-26T11:40:47;98961.38;;;11.54;70.44
21290;BME280;10804;48.988;2.408;2024-02-26T11:43:16;98962.22;;;11.55;70.47
21290;BME280;10804;48.988;2.408;2024-02-26T11:45:52;98960.53;;;11.54;70.67
21290;BME280;10804;48.988;2.408;2024-02-26T11:48:23;98965.69;;;11.55;70.61
21290;BME280;10804;48.988;2.408;2024-02-26T11:50:52;98966.69;;;11.53;70.63
21290;BME280;10804;48.988;2.408;2024-02-26T11:53:21;98976.19;;;11.54;70.56
21290;BME280;10804;48.988;2.408;2024-02-26T11:55:49;98976.31;;;11.52;70.52
21290;BME280;10804;48.988;2.408;2024-02-26T11:58:40;98968.47;;;11.52;70.48
21290;BME280;10804;48.988;2.408;2024-02-26T12:01:44;98975.38;;;11.53;70.69
21290;BME280;10804;48.988;2.408;2024-02-26T12:04:16;98980.59;;;11.53;70.43
21290;BME280;10804;48.988;2.408;2024-02-26T12:06:47;98979.75;;;11.53;70.59
21290;BME280;10804;48.988;2.408;2024-02-26T12:09:35;98982.34;;;11.53;70.59
21290;BME280;10804;48.988;2.408;2024-02-26T12:12:04;98991.97;;;11.52;70.50
21290;BME280;10804;48.988;2.408;2024-02-26T12:14:39;98991.97;;;11.52;70.63
21290;BME280;10804;48.988;2.408;2024-02-26T12:17:07;98994.56;;;11.52;70.54
21290;BME280;10804;48.988;2.408;2024-02-26T12:19:35;99002.41;;;11.52;70.59
21290;BME280;10804;48.988;2.408;2024-02-26T12:22:03;99006.69;;;11.53;70.58
21290;BME280;10804;48.988;2.408;2024-02-26T12:24:34;99004.16;;;11.52;70.61
21290;BME280;10804;48.988;2.408;2024-02-26T12:27:01;99004.09;;;11.53;70.72
21290;BME280;10804;48.988;2.408;2024-02-26T12:29:29;99010.13;;;11.54;70.57
21290;BME280;10804;48.988;2.408;2024-02-26T12:31:58;99016.22;;;11.54;70.53
21290;BME280;10804;48.988;2.408;2024-02-26T12:34:25;99016.22;;;11.54;70.47
21290;BME280;10804;48.988;2.408;2024-02-26T12:36:54;99021.50;;;11.53;70.71
21290;BME280;10804;48.988;2.408;2024-02-26T12:39:21;99035.41;;;11.53;70.48
21290;BME280;10804;48.988;2.408;2024-02-26T12:41:49;99035.41;;;11.53;70.81
21290;BME280;10804;48.988;2.408;2024-02-26T12:44:16;99043.25;;;11.53;70.55
21290;BME280;10804;48.988;2.408;2024-02-26T12:46:43;99041.63;;;11.51;70.47
21290;BME280;10804;48.988;2.408;2024-02-26T12:49:15;99041.56;;;11.52;70.54
21290;BME280;10804;48.988;2.408;2024-02-26T12:51:43;99050.22;;;11.53;70.67
21290;BME280;10804;48.988;2.408;2024-02-26T12:54:11;99052.00;;;11.52;70.82
21290;BME280;10804;48.988;2.408;2024-02-26T12:56:39;99059.91;;;11.51;70.55
21290;BME280;10804;48.988;2.408;2024-02-26T12:59:07;99055.63;;;11.50;70.81
21290;BME280;10804;48.988;2.408;2024-02-26T13:01:36;99067.81;;;11.49;70.87
21290;BME280;10804;48.988;2.408;2024-02-26T13:04:03;99063.53;;;11.48;70.86
21290;BME280;10804;48.988;2.408;2024-02-26T13:06:34;99069.69;;;11.48;70.76